KDKK/DKK METAR and TAF weather

Enter ICAO airport designator
Station Type Date Time Source
KDKK METAR 2022/05/26 04:53 UTC NOAA

KDKK 260453Z AUTO 16016G31KT 10SM CLR 19/12 A3004 RMK AO2 PK WND 16032/0434 SLP170 T01890117 402500094 $


Station Type Date Time Source
KDKK Decoded METAR 2022/05/26 04:53 UTC NOAA

CHAUTAUQUA COUNTY/DUNKIRK, NY, United States (KDKK) 42-30N 079-17W 202M
May 26, 2022 - 12:53 AM EDT / 2022.05.26 0453 UTC
Wind: from the SSE (160 degrees) at 18 MPH (16 KT) gusting to 36 MPH (31 KT):0
Visibility: 10 mile(s):0
Sky conditions: clear
Temperature: 66.0 F (18.9 C)
Dew Point: 53.1 F (11.7 C)
Relative Humidity: 62%
Pressure (altimeter): 30.04 in. Hg (1017 hPa)
ob: KDKK 260453Z AUTO 16016G31KT 10SM CLR 19/12 A3004 RMK AO2 PK WND 16032/0434 SLP170 T01890117 402500094
cycle: 5

Station Type Date Time Source
KDKK TAF UTC NOAA

Error!

Example: see airport list